createdAt,value
2019-02-08T00:00:59.323Z,11.03
2019-02-08T00:03:32.516Z,14.57
2019-02-08T00:06:12.896Z,18.27
2019-02-08T00:08:43.722Z,21.43
2019-02-08T00:11:17.912Z,9.17
2019-02-08T00:13:51.599Z,11.17
2019-02-08T00:16:25.032Z,10.70
2019-02-08T00:18:57.398Z,12.83
2019-02-08T00:21:29.475Z,8.77
2019-02-08T00:24:01.681Z,16.57
2019-02-08T00:26:38.246Z,7.33
2019-02-08T00:29:16.578Z,12.17
2019-02-08T00:31:59.116Z,11.30
2019-02-08T00:34:31.546Z,15.70
2019-02-08T00:37:03.872Z,10.83
2019-02-08T00:39:36.206Z,10.83
2019-02-08T00:42:09.325Z,12.20
2019-02-08T00:44:42.018Z,11.10
2019-02-08T00:47:14.130Z,12.23
2019-02-08T00:49:45.883Z,9.03
2019-02-08T00:52:18.128Z,12.73
2019-02-08T00:55:01.872Z,14.07
2019-02-08T00:57:36.273Z,15.57
2019-02-08T01:00:14.010Z,15.50
2019-02-08T01:02:55.022Z,13.93
2019-02-08T01:05:38.746Z,18.10
2019-02-08T01:08:12.277Z,11.03
2019-02-08T01:10:54.916Z,11.93
2019-02-08T01:13:39.212Z,16.53
2019-02-08T01:16:24.816Z,16.50
2019-02-08T01:18:58.304Z,12.43
2019-02-08T01:21:38.189Z,11.73
2019-02-08T01:24:16.664Z,14.47
2019-02-08T01:27:02.487Z,16.20
2019-02-08T01:32:34.018Z,18.37
2019-02-08T01:35:08.439Z,13.43
2019-02-08T01:37:40.953Z,13.40
2019-02-08T01:40:16.393Z,14.90
2019-02-08T01:42:49.557Z,13.43
2019-02-08T01:45:23.588Z,10.90
2019-02-08T01:48:06.371Z,13.80
2019-02-08T01:50:39.403Z,11.00
2019-02-08T01:53:11.954Z,12.23
2019-02-08T02:02:23.721Z,11.33
2019-02-08T02:04:58.009Z,11.37
2019-02-08T02:07:31.456Z,13.87
2019-02-08T02:10:04.119Z,10.30
2019-02-08T02:12:36.828Z,19.57
2019-02-08T02:15:10.240Z,10.77
2019-02-08T02:17:44.435Z,12.83
2019-02-08T02:20:23.493Z,11.67
2019-02-08T02:22:56.088Z,15.40
2019-02-08T02:25:28.832Z,18.47
2019-02-08T02:28:01.858Z,17.00
2019-02-08T02:30:37.236Z,17.53
2019-02-08T02:33:16.946Z,15.17
2019-02-08T02:35:50.425Z,15.20
2019-02-08T02:38:27.438Z,16.67
2019-02-08T02:41:00.151Z,17.60
2019-02-08T02:43:33.601Z,14.73
2019-02-08T02:46:11.300Z,15.63
2019-02-08T02:49:02.231Z,14.50
2019-02-08T02:51:35.208Z,17.17
2019-02-08T02:54:09.135Z,13.37
2019-02-08T02:56:41.788Z,18.03
2019-02-08T02:59:14.655Z,16.67
2019-02-08T03:01:47.214Z,17.30
2019-02-08T03:04:19.694Z,19.30
2019-02-08T03:06:52.740Z,22.63
2019-02-08T03:09:30.113Z,14.23
2019-02-08T03:12:03.336Z,17.93
2019-02-08T03:14:36.234Z,18.47
2019-02-08T03:17:09.108Z,19.40
2019-02-08T03:19:42.666Z,13.37
2019-02-08T03:22:15.194Z,14.07
2019-02-08T03:24:49.158Z,16.23
2019-02-08T03:27:22.200Z,15.03
2019-02-08T03:29:54.835Z,18.17
2019-02-08T03:32:29.447Z,15.70
2019-02-08T03:35:06.277Z,18.20
2019-02-08T03:37:39.963Z,13.40
2019-02-08T03:40:15.343Z,15.90
2019-02-08T03:42:48.649Z,16.03
2019-02-08T03:45:23.576Z,17.77
2019-02-08T03:47:56.592Z,15.03
2019-02-08T03:50:29.118Z,16.00
2019-02-08T03:53:01.689Z,20.90
2019-02-08T03:55:34.511Z,21.63
2019-02-08T03:58:08.097Z,13.13
2019-02-08T04:00:45.495Z,21.50
2019-02-08T04:03:18.278Z,19.23
2019-02-08T04:05:50.619Z,14.43
2019-02-08T04:08:22.879Z,20.47
2019-02-08T04:10:55.621Z,16.50
2019-02-08T04:13:27.753Z,17.63
2019-02-08T04:16:00.006Z,15.50
2019-02-08T04:18:32.220Z,19.10
2019-02-08T04:21:04.420Z,16.73
2019-02-08T04:23:37.257Z,19.20
2019-02-08T04:26:10.191Z,20.77
2019-02-08T04:28:45.925Z,17.07
2019-02-08T04:31:18.005Z,20.00
2019-02-08T04:33:50.636Z,13.87
2019-02-08T04:36:22.644Z,13.43
2019-02-08T04:38:55.203Z,11.43
2019-02-08T04:41:27.137Z,15.13
2019-02-08T04:43:59.615Z,15.43
2019-02-08T04:46:31.512Z,17.33
2019-02-08T04:49:03.992Z,19.77
2019-02-08T04:51:36.167Z,15.33
2019-02-08T04:54:08.687Z,12.73
2019-02-08T04:56:41.417Z,11.33
2019-02-08T04:59:13.661Z,11.20
2019-02-08T05:01:46.496Z,11.27
2019-02-08T05:04:19.965Z,12.40
2019-02-08T05:06:52.696Z,12.87
2019-02-08T05:09:25.494Z,14.83
2019-02-08T05:11:57.454Z,12.50
2019-02-08T05:14:30.530Z,10.33
2019-02-08T05:17:04.368Z,14.33
2019-02-08T05:19:36.353Z,17.97
2019-02-08T05:22:08.522Z,16.97
2019-02-08T05:24:45.770Z,19.20
2019-02-08T05:27:14.071Z,19.03
2019-02-08T05:29:46.926Z,14.10
2019-02-08T05:32:19.465Z,13.40
2019-02-08T05:34:51.719Z,12.13
2019-02-08T05:37:24.279Z,14.93
2019-02-08T05:39:56.334Z,13.70
2019-02-08T05:42:28.348Z,14.50
2019-02-08T05:45:00.417Z,16.30
2019-02-08T05:47:32.634Z,18.70
2019-02-08T05:50:05.343Z,16.73
2019-02-08T05:52:37.533Z,16.83
2019-02-08T05:55:12.223Z,15.93
2019-02-08T05:57:44.453Z,14.13
2019-02-08T06:00:35.533Z,17.53
2019-02-08T06:03:08.050Z,14.27
2019-02-08T06:05:41.001Z,17.43
2019-02-08T06:08:13.179Z,19.53
2019-02-08T06:10:45.298Z,27.10
2019-02-08T06:13:17.569Z,24.87
2019-02-08T06:15:49.652Z,22.50
2019-02-08T06:21:49.761Z,20.40
2019-02-08T06:24:21.492Z,24.80
2019-02-08T06:26:53.366Z,19.87
2019-02-08T06:29:24.928Z,19.20
2019-02-08T06:31:56.931Z,24.80
2019-02-08T06:34:29.265Z,19.07
2019-02-08T06:37:01.115Z,19.60
2019-02-08T06:39:33.329Z,29.63
2019-02-08T06:42:05.415Z,23.70
2019-02-08T06:44:37.716Z,21.47
2019-02-08T06:47:09.942Z,19.73
2019-02-08T06:49:41.606Z,21.77
2019-02-08T06:52:13.299Z,26.00
2019-02-08T06:54:44.943Z,23.33
2019-02-08T06:57:21.197Z,24.37
2019-02-08T06:59:54.412Z,19.27
2019-02-08T07:02:34.254Z,21.57
2019-02-08T07:05:19.154Z,23.43
2019-02-08T07:07:55.285Z,21.00
2019-02-08T07:10:31.364Z,18.33
2019-02-08T07:13:10.862Z,15.77
2019-02-08T07:15:50.153Z,20.30
2019-02-08T07:18:39.728Z,20.20
2019-02-08T07:21:15.757Z,20.27
2019-02-08T07:23:58.340Z,21.73
2019-02-08T07:26:40.104Z,16.60
2019-02-08T07:29:16.538Z,16.50
2019-02-08T07:31:52.519Z,19.03
2019-02-08T07:34:28.614Z,14.60
2019-02-08T07:37:08.002Z,17.17
2019-02-08T07:39:59.343Z,16.47
2019-02-08T07:42:32.720Z,21.80
2019-02-08T07:45:10.924Z,21.87
2019-02-08T07:48:00.605Z,14.47
2019-02-08T07:50:48.867Z,19.00
2019-02-08T07:53:27.885Z,13.47
2019-02-08T07:56:09.571Z,18.03
2019-02-08T07:58:42.564Z,15.57
2019-02-08T08:01:21.850Z,14.07
2019-02-08T08:04:01.486Z,19.43
2019-02-08T08:06:45.050Z,17.37
2019-02-08T08:09:27.384Z,19.33
2019-02-08T08:12:03.648Z,18.93
2019-02-08T08:14:46.669Z,16.10
2019-02-08T08:17:22.941Z,20.27
2019-02-08T08:19:56.413Z,21.13
2019-02-08T08:22:38.790Z,18.83
2019-02-08T08:25:19.291Z,29.67
2019-02-08T08:27:58.410Z,28.87
2019-02-08T08:30:32.406Z,28.03
2019-02-08T08:33:11.893Z,21.30
2019-02-08T08:36:03.579Z,22.80
2019-02-08T08:38:46.608Z,20.83
2019-02-08T08:41:40.038Z,27.60
2019-02-08T08:44:36.882Z,26.93
2019-02-08T08:47:20.668Z,28.57
2019-02-08T08:50:17.606Z,21.97
2019-02-08T08:53:16.625Z,26.37
2019-02-08T08:55:59.428Z,20.90
2019-02-08T08:58:45.626Z,26.67
2019-02-08T09:01:38.238Z,23.90
2019-02-08T09:04:18.173Z,22.40
2019-02-08T09:06:55.672Z,17.47
2019-02-08T09:09:39.315Z,17.37
2019-02-08T09:12:28.443Z,16.17
2019-02-08T09:15:19.731Z,22.43
2019-02-08T09:17:57.461Z,20.47
2019-02-08T09:24:16.929Z,22.40
2019-02-08T09:27:10.630Z,22.93
2019-02-08T09:30:13.393Z,18.30
2019-02-08T09:32:56.715Z,17.57
2019-02-08T09:35:47.417Z,19.10
2019-02-08T09:38:34.146Z,17.60
2019-02-08T09:41:20.680Z,15.03
2019-02-08T09:44:09.529Z,17.97
2019-02-08T09:47:01.955Z,14.93
2019-02-08T09:49:45.153Z,19.17
2019-02-08T09:52:26.413Z,21.30
2019-02-08T09:55:32.354Z,14.63
2019-02-08T09:58:39.268Z,18.93
2019-02-08T10:01:28.082Z,16.97
2019-02-08T10:04:20.235Z,17.87
2019-02-08T10:07:19.627Z,18.93
2019-02-08T10:10:11.950Z,20.43
2019-02-08T10:12:57.823Z,22.07
2019-02-08T10:15:54.020Z,14.93
2019-02-08T10:18:44.844Z,26.33
2019-02-08T10:21:22.153Z,22.13
2019-02-08T10:24:31.177Z,17.40
2019-02-08T10:27:22.406Z,22.73
2019-02-08T10:30:15.103Z,24.13
2019-02-08T10:33:01.938Z,22.30
2019-02-08T10:35:42.636Z,19.17
2019-02-08T10:38:46.465Z,24.20
2019-02-08T10:41:46.590Z,21.37
2019-02-08T10:44:20.808Z,22.40
2019-02-08T10:47:10.393Z,24.70
2019-02-08T10:50:17.846Z,25.60
2019-02-08T10:53:04.852Z,21.20
2019-02-08T10:55:54.187Z,22.70
2019-02-08T10:59:01.470Z,26.97
2019-02-08T11:01:41.844Z,25.60
2019-02-08T11:04:17.792Z,23.23
2019-02-08T11:07:18.179Z,26.47
2019-02-08T11:10:12.231Z,23.07
2019-02-08T11:12:55.378Z,21.10
2019-02-08T11:15:47.113Z,25.23
2019-02-08T11:18:50.245Z,24.60
2019-02-08T11:21:22.243Z,23.43
2019-02-08T11:23:55.030Z,22.13
2019-02-08T11:26:26.596Z,27.27
2019-02-08T11:28:58.090Z,26.27
2019-02-08T11:31:30.375Z,23.47
2019-02-08T11:34:01.997Z,25.77
2019-02-08T11:36:33.838Z,22.33
2019-02-08T11:39:08.000Z,29.83
2019-02-08T11:41:39.958Z,35.87
2019-02-08T11:45:02.923Z,42.03
2019-02-08T11:47:35.233Z,42.23
2019-02-08T11:50:09.267Z,37.27
2019-02-08T11:52:41.029Z,38.23
2019-02-08T11:55:12.654Z,37.17
2019-02-08T11:57:44.356Z,35.60
2019-02-08T12:00:22.929Z,33.63
2019-02-08T12:02:56.589Z,29.93
2019-02-08T12:05:28.096Z,32.10
2019-02-08T12:07:59.898Z,29.90
2019-02-08T12:10:31.622Z,36.93
2019-02-08T12:13:07.821Z,38.67
2019-02-08T12:15:44.475Z,28.93
2019-02-08T12:18:16.875Z,31.87
2019-02-08T12:20:48.788Z,33.10
2019-02-08T12:23:20.544Z,33.20
2019-02-08T12:25:52.125Z,34.27
2019-02-08T12:28:23.759Z,31.57
2019-02-08T12:30:55.389Z,36.53
2019-02-08T12:33:27.022Z,34.33
2019-02-08T12:35:58.590Z,37.20
2019-02-08T12:38:30.667Z,31.67
2019-02-08T12:41:09.434Z,34.37
2019-02-08T12:43:38.636Z,44.53
2019-02-08T12:46:10.254Z,37.47
2019-02-08T12:48:44.302Z,36.53
2019-02-08T12:51:16.691Z,37.00
2019-02-08T12:53:48.448Z,31.77
2019-02-08T12:56:20.905Z,34.63
2019-02-08T12:58:53.084Z,35.53
2019-02-08T13:01:24.721Z,38.07
2019-02-08T13:03:56.435Z,31.93
2019-02-08T13:06:28.587Z,31.30
2019-02-08T13:09:00.228Z,29.00
2019-02-08T13:11:32.338Z,35.80
2019-02-08T13:14:04.399Z,26.30
2019-02-08T13:16:36.496Z,27.33
2019-02-08T13:19:08.177Z,26.27
2019-02-08T13:21:40.426Z,22.27
2019-02-08T13:24:12.448Z,20.80
2019-02-08T13:26:44.941Z,17.87
2019-02-08T13:29:17.324Z,19.00
2019-02-08T13:31:49.092Z,24.23
2019-02-08T13:34:20.810Z,19.40
2019-02-08T13:36:52.435Z,15.37
2019-02-08T13:39:26.381Z,18.13
2019-02-08T13:41:58.129Z,23.40
2019-02-08T13:44:29.685Z,17.43
2019-02-08T13:47:03.618Z,21.30
2019-02-08T13:49:40.582Z,20.40
2019-02-08T13:52:12.228Z,16.50
2019-02-08T13:54:43.727Z,16.97
2019-02-08T14:00:18.754Z,13.90
2019-02-08T14:02:51.282Z,18.00
2019-02-08T14:05:28.054Z,17.57
2019-02-08T14:08:00.061Z,14.23
2019-02-08T14:10:32.189Z,12.63
2019-02-08T14:13:03.960Z,18.43
2019-02-08T14:15:36.414Z,18.27
2019-02-08T14:18:09.320Z,13.20
2019-02-08T14:20:41.006Z,16.57
2019-02-08T14:23:13.233Z,14.40
2019-02-08T14:25:44.931Z,11.90
2019-02-08T14:28:16.716Z,11.87
2019-02-08T14:30:48.997Z,11.47
2019-02-08T14:33:21.003Z,19.30
2019-02-08T14:35:59.692Z,20.93
2019-02-08T14:38:35.597Z,10.90
2019-02-08T14:41:08.335Z,16.27
2019-02-08T14:43:41.770Z,10.30
2019-02-08T14:46:14.487Z,14.03
2019-02-08T15:00:39.850Z,12.83
2019-02-08T15:03:19.981Z,12.17
2019-02-08T15:05:52.436Z,9.80
2019-02-08T15:08:24.422Z,12.70
2019-02-08T15:10:56.885Z,14.13
2019-02-08T15:13:29.179Z,20.57
2019-02-08T15:16:04.735Z,13.07
2019-02-08T15:18:38.628Z,13.13
2019-02-08T15:21:11.826Z,15.20
2019-02-08T15:23:50.939Z,10.27
2019-02-08T15:26:22.494Z,9.40
2019-02-08T15:28:54.743Z,10.60
2019-02-08T15:31:27.095Z,8.77
2019-02-08T15:33:59.615Z,15.27
2019-02-08T15:36:32.647Z,13.53
2019-02-08T15:39:08.508Z,8.87
2019-02-08T15:41:45.899Z,9.23
2019-02-08T15:44:18.856Z,11.57
2019-02-08T15:46:51.360Z,12.10
2019-02-08T15:53:14.007Z,12.33
2019-02-08T15:56:01.508Z,19.43
2019-02-08T15:58:46.108Z,34.20
2019-02-08T16:01:21.711Z,20.10
2019-02-08T16:03:58.856Z,18.70
2019-02-08T16:06:34.221Z,17.10
2019-02-08T16:09:11.011Z,18.87
2019-02-08T16:11:43.647Z,17.87
2019-02-08T16:14:21.134Z,24.53
2019-02-08T16:16:56.469Z,29.67
2019-02-08T16:19:33.349Z,17.77
2019-02-08T16:22:14.203Z,18.57
2019-02-08T16:24:56.145Z,37.43
2019-02-08T16:27:57.023Z,20.57
2019-02-08T16:30:42.844Z,33.87
2019-02-08T16:33:15.169Z,14.80
2019-02-08T16:35:49.281Z,40.33
2019-02-08T16:38:23.832Z,20.67
2019-02-08T16:41:01.577Z,18.50
2019-02-08T16:43:36.991Z,18.70
2019-02-08T16:46:13.704Z,15.70
2019-02-08T16:49:04.225Z,14.30
2019-02-08T16:51:39.218Z,15.33
2019-02-08T16:54:11.381Z,17.93
2019-02-08T16:56:43.562Z,43.70
2019-02-08T16:59:22.978Z,17.27
2019-02-08T17:02:14.520Z,22.27
2019-02-08T17:04:49.518Z,21.23
2019-02-08T17:07:21.645Z,19.83
2019-02-08T17:09:56.440Z,23.13
2019-02-08T17:12:28.700Z,20.07
2019-02-08T17:15:00.476Z,17.10
2019-02-08T17:17:35.447Z,16.53
2019-02-08T17:20:10.212Z,41.30
2019-02-08T17:22:43.458Z,11.80
2019-02-08T17:25:16.235Z,18.23
2019-02-08T17:27:55.243Z,20.47
2019-02-08T17:30:23.403Z,8.90
2019-02-08T17:32:56.322Z,18.00
2019-02-08T17:35:33.262Z,15.23
2019-02-08T17:38:05.541Z,30.10
2019-02-08T17:40:51.344Z,14.60
2019-02-08T17:43:27.011Z,27.53
2019-02-08T17:46:00.311Z,15.57
2019-02-08T17:48:35.231Z,11.17
2019-02-08T17:51:08.561Z,9.43
2019-02-08T17:53:40.955Z,12.10
2019-02-08T17:56:13.189Z,24.87
2019-02-08T17:58:45.268Z,29.93
2019-02-08T18:02:07.383Z,19.87
2019-02-08T18:04:41.523Z,16.03
2019-02-08T18:07:13.893Z,16.50
2019-02-08T18:09:48.176Z,17.70
2019-02-08T18:12:22.331Z,19.90
2019-02-08T18:15:00.419Z,10.60
2019-02-08T18:17:34.641Z,13.13
2019-02-08T18:20:10.322Z,17.00
2019-02-08T18:22:42.622Z,12.73
2019-02-08T18:25:15.383Z,17.27
2019-02-08T18:27:48.146Z,16.50
2019-02-08T18:30:29.033Z,13.43
2019-02-08T18:33:04.381Z,15.17
2019-02-08T18:35:37.115Z,13.93
2019-02-08T18:38:12.000Z,16.80
2019-02-08T18:40:46.548Z,15.53
2019-02-08T18:43:24.674Z,36.17
2019-02-08T18:46:00.374Z,12.87
2019-02-08T18:48:33.184Z,9.50
2019-02-08T18:51:06.391Z,33.73
2019-02-08T18:53:40.486Z,17.87
2019-02-08T18:56:14.954Z,16.53
2019-02-08T18:58:47.433Z,12.70
2019-02-08T19:01:22.872Z,22.23
2019-02-08T19:03:56.127Z,19.63
2019-02-08T19:06:29.039Z,9.33
2019-02-08T19:09:03.265Z,13.83
2019-02-08T19:11:39.900Z,25.43
2019-02-08T19:14:18.765Z,25.00
2019-02-08T19:17:15.813Z,22.23
2019-02-08T19:19:53.768Z,13.80
2019-02-08T19:22:32.375Z,23.23
2019-02-08T19:25:29.686Z,10.40
2019-02-08T19:28:36.633Z,26.10
2019-02-08T19:31:09.578Z,18.27
2019-02-08T19:33:44.039Z,22.23
2019-02-08T19:36:17.237Z,18.17
2019-02-08T19:38:51.433Z,30.47
2019-02-08T19:41:24.745Z,13.43
2019-02-08T19:43:57.511Z,17.70
2019-02-08T19:46:30.341Z,11.73
2019-02-08T19:49:03.429Z,16.90
2019-02-08T19:51:37.081Z,12.47
2019-02-08T19:54:10.820Z,12.83
2019-02-08T19:56:44.009Z,12.13
2019-02-08T19:59:22.264Z,16.73
2019-02-08T20:01:58.010Z,17.32
2019-02-08T20:04:35.246Z,14.47
2019-02-08T20:07:13.955Z,16.73
2019-02-08T20:09:48.391Z,23.50
2019-02-08T20:12:20.930Z,9.08
2019-02-08T20:14:53.448Z,19.23
2019-02-08T20:17:26.337Z,13.72
2019-02-08T20:20:00.334Z,47.38
2019-02-08T20:22:35.238Z,25.52
2019-02-08T20:25:13.097Z,13.72
2019-02-08T20:27:46.506Z,13.07
2019-02-08T20:30:26.229Z,9.40
2019-02-08T20:32:59.791Z,8.07
2019-02-08T20:35:32.751Z,19.92
2019-02-08T20:38:05.267Z,9.07
2019-02-08T20:40:46.369Z,11.80
2019-02-08T20:43:23.029Z,13.60
2019-02-08T20:49:07.758Z,10.35
2019-02-08T20:52:10.698Z,22.77
2019-02-08T20:54:47.035Z,19.17
2019-02-08T20:57:41.200Z,8.27
2019-02-08T21:00:37.944Z,8.93
2019-02-08T21:03:25.106Z,11.68
2019-02-08T21:06:03.222Z,12.27
2019-02-08T21:08:38.094Z,7.60
2019-02-08T21:11:14.163Z,17.53
2019-02-08T21:13:46.723Z,9.13
2019-02-08T21:16:19.266Z,20.17
2019-02-08T21:18:51.893Z,10.68
2019-02-08T21:21:24.079Z,21.27
2019-02-08T21:23:57.885Z,13.05
2019-02-08T21:26:30.865Z,13.00
2019-02-08T21:29:10.301Z,17.13
2019-02-08T21:31:45.260Z,22.27
2019-02-08T21:34:18.312Z,15.95
2019-02-08T21:36:50.628Z,6.62
2019-02-08T21:39:24.039Z,12.10
2019-02-08T21:41:57.957Z,11.67
2019-02-08T21:44:35.799Z,8.80
2019-02-08T21:47:10.852Z,11.10
2019-02-08T21:49:47.530Z,10.83
2019-02-08T21:52:42.444Z,9.97
2019-02-08T21:55:22.724Z,9.97
2019-02-08T21:57:55.518Z,12.07
2019-02-08T22:00:32.473Z,15.40
2019-02-08T22:03:08.082Z,19.73
2019-02-08T22:05:43.580Z,16.57
2019-02-08T22:08:17.712Z,21.27
2019-02-08T22:10:58.783Z,22.02
2019-02-08T22:13:32.686Z,28.42
2019-02-08T22:16:06.749Z,11.85
2019-02-08T22:18:43.525Z,14.28
2019-02-08T22:21:17.066Z,16.53
2019-02-08T22:23:52.200Z,8.53
2019-02-08T22:26:24.546Z,8.20
2019-02-08T22:29:14.004Z,9.78
2019-02-08T22:31:48.127Z,10.53
2019-02-08T22:34:20.347Z,11.47
2019-02-08T22:36:52.489Z,11.33
2019-02-08T22:39:28.002Z,7.30
2019-02-08T22:42:05.815Z,15.87
2019-02-08T22:44:41.914Z,13.57
2019-02-08T22:47:20.218Z,9.60
2019-02-08T22:50:05.305Z,11.90
2019-02-08T22:52:58.243Z,9.67
2019-02-08T22:55:39.832Z,9.73
2019-02-08T22:58:31.006Z,14.20
2019-02-08T23:01:08.208Z,6.67
2019-02-08T23:03:41.918Z,10.03
2019-02-08T23:06:15.862Z,9.87
2019-02-08T23:08:58.180Z,10.03
2019-02-08T23:11:30.951Z,14.03
2019-02-08T23:14:06.972Z,21.53
2019-02-08T23:16:42.710Z,9.30
2019-02-08T23:19:17.567Z,9.67
2019-02-08T23:21:58.523Z,10.53
2019-02-08T23:24:33.125Z,15.07
2019-02-08T23:27:05.654Z,13.03
2019-02-08T23:29:47.113Z,13.83
2019-02-08T23:32:35.291Z,13.80
2019-02-08T23:35:09.253Z,14.27
2019-02-08T23:37:42.149Z,8.33
2019-02-08T23:40:16.167Z,12.13
2019-02-08T23:42:52.076Z,18.73
2019-02-08T23:45:27.730Z,8.23
2019-02-08T23:48:04.839Z,12.83
2019-02-08T23:50:42.747Z,10.30
2019-02-08T23:53:26.661Z,11.33
2019-02-08T23:56:04.806Z,17.10
2019-02-08T23:58:38.747Z,8.53
